createdAt,value
2019-05-16T00:04:34.372Z,100551.27
2019-05-16T00:09:37.996Z,100548.98
2019-05-16T00:14:39.410Z,100540.73
2019-05-16T00:19:40.977Z,100540.38
2019-05-16T00:24:42.641Z,100538.05
2019-05-16T00:29:44.257Z,100528.27
2019-05-16T00:34:47.686Z,100522.12
2019-05-16T00:39:49.290Z,100520.09
2019-05-16T00:44:51.124Z,100508.03
2019-05-16T00:49:52.675Z,100492.62
2019-05-16T00:54:54.239Z,100500.05
2019-05-16T00:59:55.772Z,100482.47
2019-05-16T01:04:58.993Z,100471.67
2019-05-16T01:10:00.681Z,100468.47
2019-05-16T01:15:02.660Z,100468.58
2019-05-16T01:20:04.319Z,100462.69
2019-05-16T01:25:06.115Z,100458.84
2019-05-16T01:30:09.088Z,100457.42
2019-05-16T01:35:11.195Z,100456.89
2019-05-16T01:40:12.939Z,100451.55
2019-05-16T01:45:15.209Z,100446.05
2019-05-16T01:50:18.068Z,100439.58
2019-05-16T01:55:19.929Z,100433.55
2019-05-16T02:00:25.199Z,100426.61
2019-05-16T02:05:25.161Z,100428.89
2019-05-16T02:10:28.412Z,100427.77
2019-05-16T02:15:30.078Z,100423.55
2019-05-16T02:20:31.641Z,100420.44
2019-05-16T02:25:33.195Z,100410.78
2019-05-16T02:30:34.788Z,100409.66
2019-05-16T02:35:36.481Z,100407.66
2019-05-16T02:40:38.160Z,100400.53
2019-05-16T02:45:41.547Z,100390.89
2019-05-16T02:50:43.494Z,100390.30
2019-05-16T02:55:45.099Z,100388.83
2019-05-16T03:00:46.653Z,100389.45
2019-05-16T03:05:50.806Z,100374.55
2019-05-16T03:10:52.382Z,100362.91
2019-05-16T03:15:55.383Z,100361.16
2019-05-16T03:21:00.586Z,100353.97
2019-05-16T03:26:02.330Z,100350.74
2019-05-16T03:31:05.598Z,100344.66
2019-05-16T03:36:14.035Z,100331.03
2019-05-16T03:41:11.631Z,100315.08
2019-05-16T03:46:13.430Z,100312.05
2019-05-16T03:51:14.985Z,100307.47
2019-05-16T03:56:16.547Z,100305.75
2019-05-16T04:01:20.847Z,100303.91
2019-05-16T04:06:22.231Z,100297.81
2019-05-16T04:11:24.201Z,100298.50
2019-05-16T04:16:25.749Z,100297.34
2019-05-16T04:21:27.342Z,100301.72
2019-05-16T04:26:30.902Z,100285.77
2019-05-16T04:31:32.436Z,100282.83
2019-05-16T04:36:33.977Z,100278.92
2019-05-16T04:41:35.639Z,100275.64
2019-05-16T04:46:40.848Z,100272.68
2019-05-16T04:51:41.653Z,100262.55
2019-05-16T04:56:43.401Z,100259.02
2019-05-16T05:01:44.957Z,100253.58
2019-05-16T05:06:46.536Z,100253.24
2019-05-16T05:11:48.082Z,100254.09
2019-05-16T05:16:50.763Z,100256.16
2019-05-16T05:21:52.506Z,100258.08
2019-05-16T05:26:54.195Z,100255.00
2019-05-16T05:31:56.053Z,100246.30
2019-05-16T05:37:00.224Z,100248.60
2019-05-16T05:42:01.314Z,100248.26
2019-05-16T05:47:02.994Z,100257.70
2019-05-16T05:52:04.663Z,100247.58
2019-05-16T05:57:06.344Z,100245.08
2019-05-16T06:02:07.899Z,100242.12
2019-05-16T06:07:10.170Z,100243.66
2019-05-16T06:12:12.014Z,100248.73
2019-05-16T06:17:13.573Z,100241.92
2019-05-16T06:22:15.119Z,100239.98
2019-05-16T06:27:16.692Z,100219.92
2019-05-16T06:32:19.842Z,100216.17
2019-05-16T06:37:21.518Z,100209.09
2019-05-16T06:42:23.063Z,100197.66
2019-05-16T06:47:24.654Z,100205.58
2019-05-16T06:52:26.204Z,100199.09
2019-05-16T06:57:30.020Z,100194.39
2019-05-16T07:02:34.458Z,100193.67
2019-05-16T07:07:34.807Z,100186.09
2019-05-16T07:12:36.375Z,100198.98
2019-05-16T07:17:39.767Z,100197.17
2019-05-16T07:22:41.587Z,100189.47
2019-05-16T07:27:43.157Z,100183.88
2019-05-16T07:32:44.744Z,100185.03
2019-05-16T07:37:46.401Z,100187.38
2019-05-16T07:42:47.980Z,100180.73
2019-05-16T07:47:50.972Z,100166.72
2019-05-16T07:52:52.806Z,100171.52
2019-05-16T07:57:54.467Z,100164.00
2019-05-16T08:02:56.139Z,100164.16
2019-05-16T08:07:59.906Z,100155.98
2019-05-16T08:18:05.016Z,100146.05
2019-05-16T08:23:06.590Z,100148.70
2019-05-16T08:28:11.467Z,100148.58
2019-05-16T08:33:13.609Z,100145.66
2019-05-16T08:38:15.170Z,100150.06
2019-05-16T08:43:16.845Z,100160.60
2019-05-16T08:48:23.182Z,100160.45
2019-05-16T08:50:09.932Z,100152.73
2019-05-16T08:53:22.301Z,100152.63
2019-05-16T08:58:23.969Z,100141.28
2019-05-16T09:03:25.534Z,100142.03
2019-05-16T09:08:27.087Z,100144.99
2019-05-16T09:13:28.723Z,100142.03
2019-05-16T09:18:44.779Z,100135.66
2019-05-16T09:23:33.784Z,100132.91
2019-05-16T09:28:38.930Z,100121.28
2019-05-16T09:33:38.907Z,100116.89
2019-05-16T09:38:40.520Z,100111.05
2019-05-16T09:43:42.183Z,100107.93
2019-05-16T09:48:47.468Z,100098.07
2019-05-16T09:53:47.342Z,100108.26
2019-05-16T09:58:49.042Z,100101.37
2019-05-16T10:03:50.717Z,100094.52
2019-05-16T10:08:52.274Z,100097.23
2019-05-16T10:13:53.958Z,100089.99
2019-05-16T10:18:56.767Z,100089.49
2019-05-16T10:23:58.592Z,100091.64
2019-05-16T10:29:00.315Z,100085.26
2019-05-16T10:34:02.542Z,100079.21
2019-05-16T10:39:07.544Z,100074.30
2019-05-16T10:44:08.954Z,100076.97
2019-05-16T10:49:10.576Z,100072.91
2019-05-16T10:54:14.333Z,100076.38
2019-05-16T10:59:53.255Z,100072.44
2019-05-16T11:04:29.355Z,100074.92
2019-05-16T11:09:23.000Z,100076.07
2019-05-16T11:14:27.963Z,100070.19
2019-05-16T11:19:28.482Z,100063.12
2019-05-16T11:24:30.336Z,100060.03
2019-05-16T11:29:31.923Z,100053.36
2019-05-16T11:34:33.644Z,100045.35
2019-05-16T11:39:37.076Z,100040.61
2019-05-16T11:44:38.730Z,100040.10
2019-05-16T11:49:40.495Z,100044.78
2019-05-16T11:54:42.067Z,100039.33
2019-05-16T11:59:43.618Z,100040.17
2019-05-16T12:04:47.275Z,100033.27
2019-05-16T12:09:55.111Z,100025.73
2019-05-16T12:14:55.185Z,100023.78
2019-05-16T12:19:57.468Z,100021.47
2019-05-16T12:24:59.339Z,100026.58
2019-05-16T12:30:01.065Z,100022.06
2019-05-16T12:35:02.864Z,100023.72
2019-05-16T12:40:04.849Z,100020.08
2019-05-16T12:45:07.207Z,100025.53
2019-05-16T12:50:11.003Z,100024.89
2019-05-16T12:55:13.172Z,100024.86
2019-05-16T13:00:16.321Z,100021.73
2019-05-16T13:05:18.948Z,100021.86
2019-05-16T13:10:21.050Z,100024.48
2019-05-16T13:15:22.728Z,100022.06
2019-05-16T13:20:26.635Z,100017.48
2019-05-16T13:25:28.006Z,100014.72
2019-05-16T13:30:29.758Z,100005.87
2019-05-16T13:35:31.503Z,100003.94
2019-05-16T13:40:33.154Z,99998.86
2019-05-16T13:45:37.482Z,100000.17
2019-05-16T13:50:39.894Z,100004.95
2019-05-16T13:55:41.738Z,100007.41
2019-05-16T14:00:43.452Z,99999.36
2019-05-16T14:05:47.570Z,99997.57
2019-05-16T14:10:49.360Z,99987.73
2019-05-16T14:15:50.980Z,99995.75
2019-05-16T14:20:52.527Z,99996.95
2019-05-16T14:25:54.096Z,99989.71
2019-05-16T14:30:57.218Z,99987.59
2019-05-16T14:35:58.891Z,99991.22
2019-05-16T14:41:00.561Z,99988.09
2019-05-16T14:46:02.106Z,99984.66
2019-05-16T14:51:03.874Z,99982.52
2019-05-16T14:56:06.977Z,99987.94
2019-05-16T15:01:08.828Z,99979.59
2019-05-16T15:06:10.665Z,99982.05
2019-05-16T15:11:14.540Z,99986.30
2019-05-16T15:16:16.988Z,99984.34
2019-05-16T15:21:18.844Z,99981.04
2019-05-16T15:26:20.482Z,99978.74
2019-05-16T15:31:22.043Z,99980.56
2019-05-16T15:36:23.711Z,99987.80
2019-05-16T15:41:27.256Z,99983.02
2019-05-16T15:46:28.832Z,99980.88
2019-05-16T15:51:30.671Z,99973.35
2019-05-16T15:56:33.004Z,99978.74
2019-05-16T16:01:37.617Z,99971.84
2019-05-16T16:06:38.188Z,99962.00
2019-05-16T16:11:39.809Z,99962.00
2019-05-16T16:16:41.482Z,99953.98
2019-05-16T16:21:43.244Z,99952.50
2019-05-16T16:26:46.914Z,99954.80
2019-05-16T16:31:48.435Z,99953.67
2019-05-16T16:36:50.030Z,99954.01
2019-05-16T16:41:51.740Z,99951.86
2019-05-16T16:46:53.375Z,99961.38
2019-05-16T16:51:57.265Z,99964.01
2019-05-16T16:56:58.573Z,99972.20
2019-05-16T17:02:00.339Z,99975.14
2019-05-16T17:07:01.951Z,99977.77
2019-05-16T17:12:03.760Z,99977.45
2019-05-16T17:17:07.101Z,99975.67
2019-05-16T17:22:17.089Z,99972.04
2019-05-16T17:27:12.625Z,99972.17
2019-05-16T17:32:16.547Z,99979.72
2019-05-16T17:37:17.896Z,99983.03
2019-05-16T17:42:19.748Z,99981.52
2019-05-16T17:47:21.463Z,99981.67
2019-05-16T17:52:23.055Z,99971.50
2019-05-16T17:57:24.737Z,99972.97
2019-05-16T18:02:26.694Z,99972.00
2019-05-16T18:07:28.676Z,99975.29
2019-05-16T18:12:30.302Z,99984.48
2019-05-16T18:17:31.890Z,99976.44
2019-05-16T18:22:33.518Z,99977.89
2019-05-16T18:27:37.390Z,99973.48
2019-05-16T18:32:38.574Z,99981.53
2019-05-16T18:37:40.139Z,99979.71
2019-05-16T18:42:41.729Z,99972.64
2019-05-16T18:47:43.395Z,99978.73
2019-05-16T18:52:47.051Z,99980.05
2019-05-16T18:57:48.659Z,99977.08
2019-05-16T19:02:50.305Z,99979.88
2019-05-16T19:07:51.904Z,99984.80
2019-05-16T19:12:56.526Z,99976.56
2019-05-16T19:17:58.660Z,99980.64
2019-05-16T19:23:00.495Z,99982.09
2019-05-16T19:28:02.047Z,99979.61
2019-05-16T19:33:03.707Z,99984.00
2019-05-16T19:38:06.696Z,99989.25
2019-05-16T19:43:08.647Z,99996.06
2019-05-16T19:48:10.199Z,99986.70
2019-05-16T19:53:11.819Z,99994.71
2019-05-16T19:58:13.404Z,99991.08
2019-05-16T20:03:17.103Z,99983.69
2019-05-16T20:08:18.683Z,99986.61
2019-05-16T20:13:22.791Z,99978.87
2019-05-16T20:18:24.367Z,99968.64
2019-05-16T20:23:27.669Z,99965.61
2019-05-16T20:28:29.495Z,99965.58
2019-05-16T20:33:32.236Z,99964.43
2019-05-16T20:38:33.823Z,99956.48
2019-05-16T20:43:36.811Z,99958.39
2019-05-16T20:48:38.531Z,99962.66
2019-05-16T20:53:40.179Z,99967.57
2019-05-16T20:58:41.738Z,99972.98
2019-05-16T21:03:43.431Z,99969.68
2019-05-16T21:08:46.316Z,99965.88
2019-05-16T21:13:49.033Z,99965.44
2019-05-16T21:18:50.795Z,99960.71
2019-05-16T21:23:52.369Z,99953.27
2019-05-16T21:28:53.919Z,99949.98
2019-05-16T21:33:56.463Z,99953.95
2019-05-16T21:38:58.530Z,99945.28
2019-05-16T21:44:00.126Z,99942.16
2019-05-16T21:49:01.683Z,99946.25
2019-05-16T21:54:03.332Z,99944.64
2019-05-16T21:59:06.965Z,99952.05
2019-05-16T22:04:08.874Z,99947.90
2019-05-16T22:09:10.557Z,99938.94
2019-05-16T22:14:12.203Z,99934.83
2019-05-16T22:19:13.857Z,99938.64
2019-05-16T22:24:17.179Z,99935.68
2019-05-16T22:29:19.102Z,99941.46
2019-05-16T22:34:20.640Z,99937.86
2019-05-16T22:39:22.387Z,99936.89
2019-05-16T22:44:23.939Z,99934.03
2019-05-16T22:49:27.495Z,99925.09
2019-05-16T22:54:29.015Z,99922.47
2019-05-16T22:59:30.583Z,99921.46
2019-05-16T23:04:32.248Z,99925.73
2019-05-16T23:09:33.832Z,99928.02
2019-05-16T23:14:35.406Z,99922.27
2019-05-16T23:19:36.995Z,99920.62
2019-05-16T23:24:38.546Z,99915.03
2019-05-16T23:29:40.112Z,99913.73
2019-05-16T23:34:41.746Z,99906.03
2019-05-16T23:39:43.302Z,99907.98
2019-05-16T23:44:47.196Z,99898.12
2019-05-16T23:49:48.444Z,99884.64
2019-05-16T23:54:51.647Z,99895.94
2019-05-16T23:59:53.303Z,99895.91
